sensor_id;sensor_type;location;lat;lon;timestamp;P1;durP1;ratioP1;P2;durP2;ratioP2
75112;SDS011;63692;47.338;8.520;2023-12-29T05:32:05;6.25;;;2.85;;
75112;SDS011;63692;47.338;8.520;2023-12-29T05:34:31;5.53;;;2.80;;
75112;SDS011;63692;47.338;8.520;2023-12-29T05:36:56;5.82;;;3.50;;
75112;SDS011;63692;47.338;8.520;2023-12-29T05:39:22;5.22;;;3.10;;
75112;SDS011;63692;47.338;8.520;2023-12-29T05:41:48;8.20;;;2.90;;
75112;SDS011;63692;47.338;8.520;2023-12-29T06:10:42;4.65;;;2.75;;
75112;SDS011;63692;47.338;8.520;2023-12-29T06:13:08;4.30;;;2.90;;
75112;SDS011;63692;47.338;8.520;2023-12-29T06:18:03;4.93;;;2.90;;
75112;SDS011;63692;47.338;8.520;2023-12-29T06:20:29;5.45;;;3.25;;
75112;SDS011;63692;47.338;8.520;2023-12-29T06:22:55;5.05;;;2.88;;
75112;SDS011;63692;47.338;8.520;2023-12-29T06:25:21;6.10;;;2.80;;
75112;SDS011;63692;47.338;8.520;2023-12-29T06:27:46;5.22;;;2.85;;
75112;SDS011;63692;47.338;8.520;2023-12-29T06:30:13;6.15;;;3.30;;
75112;SDS011;63692;47.338;8.520;2023-12-29T06:32:39;6.97;;;3.25;;
75112;SDS011;63692;47.338;8.520;2023-12-29T06:35:05;6.68;;;3.08;;
75112;SDS011;63692;47.338;8.520;2023-12-29T06:37:32;5.45;;;3.33;;
75112;SDS011;63692;47.338;8.520;2023-12-29T06:39:58;6.13;;;2.95;;
75112;SDS011;63692;47.338;8.520;2023-12-29T06:42:23;4.80;;;3.03;;
75112;SDS011;63692;47.338;8.520;2023-12-29T06:44:49;6.40;;;2.88;;
75112;SDS011;63692;47.338;8.520;2023-12-29T06:47:15;5.35;;;3.40;;
75112;SDS011;63692;47.338;8.520;2023-12-29T06:49:40;6.78;;;3.17;;
75112;SDS011;63692;47.338;8.520;2023-12-29T06:52:06;5.13;;;3.00;;
75112;SDS011;63692;47.338;8.520;2023-12-29T06:54:33;5.82;;;3.10;;
75112;SDS011;63692;47.338;8.520;2023-12-29T06:56:59;5.88;;;3.03;;
75112;SDS011;63692;47.338;8.520;2023-12-29T06:59:24;5.32;;;3.20;;
75112;SDS011;63692;47.338;8.520;2023-12-29T07:01:50;5.03;;;3.25;;
75112;SDS011;63692;47.338;8.520;2023-12-29T07:04:16;4.75;;;3.35;;
75112;SDS011;63692;47.338;8.520;2023-12-29T07:06:42;6.70;;;3.22;;
75112;SDS011;63692;47.338;8.520;2023-12-29T07:09:08;6.35;;;3.30;;
75112;SDS011;63692;47.338;8.520;2023-12-29T07:11:34;5.95;;;3.60;;
75112;SDS011;63692;47.338;8.520;2023-12-29T07:14:00;5.63;;;3.47;;
75112;SDS011;63692;47.338;8.520;2023-12-29T07:16:26;6.05;;;3.08;;
75112;SDS011;63692;47.338;8.520;2023-12-29T07:18:52;6.30;;;3.25;;
75112;SDS011;63692;47.338;8.520;2023-12-29T07:21:18;4.45;;;3.05;;
75112;SDS011;63692;47.338;8.520;2023-12-29T07:23:43;4.90;;;2.85;;
75112;SDS011;63692;47.338;8.520;2023-12-29T07:26:09;5.28;;;3.15;;
75112;SDS011;63692;47.338;8.520;2023-12-29T07:28:35;6.13;;;3.40;;
75112;SDS011;63692;47.338;8.520;2023-12-29T07:31:01;8.88;;;2.95;;
75112;SDS011;63692;47.338;8.520;2023-12-29T07:33:27;6.18;;;3.10;;
75112;SDS011;63692;47.338;8.520;2023-12-29T07:35:53;5.80;;;3.00;;
75112;SDS011;63692;47.338;8.520;2023-12-29T07:38:18;5.78;;;2.90;;
75112;SDS011;63692;47.338;8.520;2023-12-29T07:40:44;5.38;;;3.22;;
75112;SDS011;63692;47.338;8.520;2023-12-29T07:43:10;6.95;;;3.10;;
75112;SDS011;63692;47.338;8.520;2023-12-29T07:45:36;4.90;;;2.90;;
75112;SDS011;63692;47.338;8.520;2023-12-29T07:48:02;4.78;;;2.40;;
75112;SDS011;63692;47.338;8.520;2023-12-29T07:50:29;3.42;;;2.20;;
75112;SDS011;63692;47.338;8.520;2023-12-29T07:52:54;6.15;;;2.80;;
75112;SDS011;63692;47.338;8.520;2023-12-29T07:55:20;5.97;;;2.78;;
75112;SDS011;63692;47.338;8.520;2023-12-29T07:57:46;4.47;;;2.75;;
75112;SDS011;63692;47.338;8.520;2023-12-29T08:00:12;5.93;;;2.95;;
75112;SDS011;63692;47.338;8.520;2023-12-29T08:02:39;5.50;;;2.58;;
75112;SDS011;63692;47.338;8.520;2023-12-29T08:05:05;6.50;;;2.70;;
75112;SDS011;63692;47.338;8.520;2023-12-29T08:07:33;6.22;;;3.20;;
75112;SDS011;63692;47.338;8.520;2023-12-29T08:10:01;3.80;;;2.58;;
75112;SDS011;63692;47.338;8.520;2023-12-29T08:12:29;5.47;;;2.53;;
75112;SDS011;63692;47.338;8.520;2023-12-29T08:14:55;4.93;;;2.80;;
75112;SDS011;63692;47.338;8.520;2023-12-29T08:17:24;5.05;;;2.50;;
75112;SDS011;63692;47.338;8.520;2023-12-29T08:19:51;4.63;;;2.78;;
75112;SDS011;63692;47.338;8.520;2023-12-29T08:22:16;4.00;;;2.38;;
75112;SDS011;63692;47.338;8.520;2023-12-29T08:24:44;8.15;;;2.75;;
75112;SDS011;63692;47.338;8.520;2023-12-29T08:27:11;4.72;;;2.42;;
75112;SDS011;63692;47.338;8.520;2023-12-29T08:29:38;4.32;;;2.53;;
75112;SDS011;63692;47.338;8.520;2023-12-29T08:32:04;5.82;;;2.70;;
75112;SDS011;63692;47.338;8.520;2023-12-29T08:34:29;3.88;;;2.45;;
75112;SDS011;63692;47.338;8.520;2023-12-29T08:36:55;6.65;;;2.72;;
75112;SDS011;63692;47.338;8.520;2023-12-29T08:39:21;3.80;;;2.38;;
75112;SDS011;63692;47.338;8.520;2023-12-29T08:41:47;5.45;;;2.70;;
75112;SDS011;63692;47.338;8.520;2023-12-29T08:44:15;4.22;;;2.35;;
75112;SDS011;63692;47.338;8.520;2023-12-29T08:46:41;4.90;;;2.50;;
75112;SDS011;63692;47.338;8.520;2023-12-29T08:49:07;4.85;;;2.72;;
75112;SDS011;63692;47.338;8.520;2023-12-29T08:51:33;5.28;;;2.30;;
75112;SDS011;63692;47.338;8.520;2023-12-29T08:53:59;8.10;;;3.20;;
75112;SDS011;63692;47.338;8.520;2023-12-29T08:56:24;7.90;;;3.28;;
75112;SDS011;63692;47.338;8.520;2023-12-29T08:58:50;5.38;;;2.70;;
75112;SDS011;63692;47.338;8.520;2023-12-29T09:01:17;5.25;;;2.53;;
75112;SDS011;63692;47.338;8.520;2023-12-29T09:03:43;4.72;;;2.63;;
75112;SDS011;63692;47.338;8.520;2023-12-29T09:06:08;4.32;;;2.47;;
75112;SDS011;63692;47.338;8.520;2023-12-29T09:08:34;7.93;;;2.53;;
75112;SDS011;63692;47.338;8.520;2023-12-29T09:11:00;7.60;;;2.80;;
75112;SDS011;63692;47.338;8.520;2023-12-29T09:13:26;5.90;;;2.78;;
75112;SDS011;63692;47.338;8.520;2023-12-29T09:15:53;5.80;;;3.03;;
75112;SDS011;63692;47.338;8.520;2023-12-29T09:18:19;6.93;;;2.80;;
75112;SDS011;63692;47.338;8.520;2023-12-29T09:20:45;6.47;;;3.05;;
75112;SDS011;63692;47.338;8.520;2023-12-29T09:23:11;9.15;;;3.10;;
75112;SDS011;63692;47.338;8.520;2023-12-29T09:25:36;7.30;;;2.85;;
75112;SDS011;63692;47.338;8.520;2023-12-29T09:28:02;7.13;;;3.00;;
75112;SDS011;63692;47.338;8.520;2023-12-29T09:30:28;4.90;;;2.70;;
75112;SDS011;63692;47.338;8.520;2023-12-29T09:32:53;5.05;;;2.70;;
75112;SDS011;63692;47.338;8.520;2023-12-29T09:35:19;7.10;;;3.05;;
75112;SDS011;63692;47.338;8.520;2023-12-29T09:37:47;5.05;;;2.55;;
75112;SDS011;63692;47.338;8.520;2023-12-29T09:40:14;6.40;;;3.10;;
75112;SDS011;63692;47.338;8.520;2023-12-29T09:42:40;6.65;;;2.83;;
75112;SDS011;63692;47.338;8.520;2023-12-29T09:45:08;4.35;;;2.72;;
75112;SDS011;63692;47.338;8.520;2023-12-29T09:47:40;6.15;;;2.72;;
75112;SDS011;63692;47.338;8.520;2023-12-29T09:50:09;3.83;;;2.53;;
75112;SDS011;63692;47.338;8.520;2023-12-29T09:52:40;5.13;;;2.83;;
75112;SDS011;63692;47.338;8.520;2023-12-29T09:55:09;10.90;;;2.72;;
75112;SDS011;63692;47.338;8.520;2023-12-29T09:57:39;7.30;;;2.85;;
75112;SDS011;63692;47.338;8.520;2023-12-29T10:00:06;5.50;;;2.78;;
75112;SDS011;63692;47.338;8.520;2023-12-29T10:02:35;6.45;;;2.75;;
75112;SDS011;63692;47.338;8.520;2023-12-29T10:05:01;5.47;;;2.70;;
75112;SDS011;63692;47.338;8.520;2023-12-29T10:07:28;4.43;;;2.67;;
75112;SDS011;63692;47.338;8.520;2023-12-29T10:10:00;5.50;;;3.08;;
75112;SDS011;63692;47.338;8.520;2023-12-29T10:12:30;6.35;;;3.13;;
75112;SDS011;63692;47.338;8.520;2023-12-29T10:23:08;7.88;;;3.10;;
75112;SDS011;63692;47.338;8.520;2023-12-29T10:25:42;4.35;;;2.75;;
75112;SDS011;63692;47.338;8.520;2023-12-29T10:28:09;4.85;;;3.03;;
75112;SDS011;63692;47.338;8.520;2023-12-29T10:30:35;5.65;;;3.17;;
75112;SDS011;63692;47.338;8.520;2023-12-29T10:33:02;8.40;;;3.17;;
75112;SDS011;63692;47.338;8.520;2023-12-29T10:35:29;5.03;;;3.58;;
75112;SDS011;63692;47.338;8.520;2023-12-29T10:38:07;4.38;;;3.20;;
75112;SDS011;63692;47.338;8.520;2023-12-29T10:40:36;6.55;;;3.17;;
75112;SDS011;63692;47.338;8.520;2023-12-29T10:43:02;5.35;;;3.30;;
75112;SDS011;63692;47.338;8.520;2023-12-29T10:45:32;5.63;;;3.17;;
75112;SDS011;63692;47.338;8.520;2023-12-29T10:48:01;6.10;;;3.20;;
75112;SDS011;63692;47.338;8.520;2023-12-29T10:50:27;4.65;;;3.10;;
75112;SDS011;63692;47.338;8.520;2023-12-29T10:55:21;4.47;;;3.15;;
75112;SDS011;63692;47.338;8.520;2023-12-29T11:00:16;5.22;;;2.80;;
75112;SDS011;63692;47.338;8.520;2023-12-29T11:02:44;5.35;;;3.20;;
75112;SDS011;63692;47.338;8.520;2023-12-29T11:05:19;4.82;;;2.72;;
75112;SDS011;63692;47.338;8.520;2023-12-29T11:07:50;4.88;;;2.70;;
75112;SDS011;63692;47.338;8.520;2023-12-29T11:10:19;4.97;;;3.17;;
75112;SDS011;63692;47.338;8.520;2023-12-29T11:12:46;5.15;;;3.20;;
75112;SDS011;63692;47.338;8.520;2023-12-29T11:15:13;5.72;;;3.08;;
75112;SDS011;63692;47.338;8.520;2023-12-29T11:17:41;4.80;;;2.90;;
75112;SDS011;63692;47.338;8.520;2023-12-29T11:20:17;5.47;;;2.83;;
75112;SDS011;63692;47.338;8.520;2023-12-29T11:22:45;3.75;;;2.50;;
75112;SDS011;63692;47.338;8.520;2023-12-29T11:25:11;4.68;;;2.95;;
75112;SDS011;63692;47.338;8.520;2023-12-29T11:27:37;7.22;;;3.97;;
75112;SDS011;63692;47.338;8.520;2023-12-29T11:30:03;8.13;;;3.60;;
75112;SDS011;63692;47.338;8.520;2023-12-29T11:38:07;6.45;;;3.72;;
75112;SDS011;63692;47.338;8.520;2023-12-29T11:40:50;5.35;;;3.28;;
75112;SDS011;63692;47.338;8.520;2023-12-29T11:43:38;6.10;;;3.88;;
75112;SDS011;63692;47.338;8.520;2023-12-29T11:46:03;5.72;;;3.33;;
75112;SDS011;63692;47.338;8.520;2023-12-29T11:54:04;4.55;;;2.88;;
75112;SDS011;63692;47.338;8.520;2023-12-29T11:56:30;4.45;;;2.80;;
75112;SDS011;63692;47.338;8.520;2023-12-29T11:59:19;5.43;;;2.65;;
75112;SDS011;63692;47.338;8.520;2023-12-29T12:01:57;5.72;;;2.70;;
75112;SDS011;63692;47.338;8.520;2023-12-29T12:07:16;5.38;;;2.88;;
75112;SDS011;63692;47.338;8.520;2023-12-29T12:09:48;4.72;;;2.88;;
75112;SDS011;63692;47.338;8.520;2023-12-29T12:12:15;4.95;;;2.63;;
75112;SDS011;63692;47.338;8.520;2023-12-29T12:15:05;5.82;;;2.50;;
75112;SDS011;63692;47.338;8.520;2023-12-29T12:17:53;6.43;;;2.85;;
75112;SDS011;63692;47.338;8.520;2023-12-29T12:20:19;4.40;;;2.78;;
75112;SDS011;63692;47.338;8.520;2023-12-29T12:22:45;4.78;;;2.67;;
75112;SDS011;63692;47.338;8.520;2023-12-29T12:25:25;5.28;;;2.78;;
75112;SDS011;63692;47.338;8.520;2023-12-29T12:27:55;4.85;;;2.90;;
75112;SDS011;63692;47.338;8.520;2023-12-29T12:30:21;6.63;;;3.30;;
75112;SDS011;63692;47.338;8.520;2023-12-29T12:32:57;5.90;;;3.38;;
75112;SDS011;63692;47.338;8.520;2023-12-29T12:35:24;5.80;;;3.90;;
75112;SDS011;63692;47.338;8.520;2023-12-29T12:38:06;6.68;;;3.53;;
75112;SDS011;63692;47.338;8.520;2023-12-29T12:40:32;9.90;;;3.80;;
75112;SDS011;63692;47.338;8.520;2023-12-29T12:42:58;7.50;;;4.28;;
75112;SDS011;63692;47.338;8.520;2023-12-29T12:45:24;6.78;;;3.55;;
75112;SDS011;63692;47.338;8.520;2023-12-29T12:47:54;8.68;;;4.28;;
75112;SDS011;63692;47.338;8.520;2023-12-29T12:50:25;6.88;;;3.85;;
75112;SDS011;63692;47.338;8.520;2023-12-29T12:52:51;5.55;;;3.45;;
75112;SDS011;63692;47.338;8.520;2023-12-29T12:55:17;5.35;;;3.45;;
75112;SDS011;63692;47.338;8.520;2023-12-29T12:57:43;5.63;;;3.38;;
75112;SDS011;63692;47.338;8.520;2023-12-29T13:00:10;6.70;;;3.58;;
75112;SDS011;63692;47.338;8.520;2023-12-29T13:02:36;5.75;;;3.42;;
75112;SDS011;63692;47.338;8.520;2023-12-29T13:05:02;6.90;;;3.55;;
75112;SDS011;63692;47.338;8.520;2023-12-29T13:07:32;8.25;;;4.10;;
75112;SDS011;63692;47.338;8.520;2023-12-29T13:09:59;5.97;;;3.25;;
75112;SDS011;63692;47.338;8.520;2023-12-29T13:12:26;5.38;;;2.80;;
75112;SDS011;63692;47.338;8.520;2023-12-29T13:14:52;7.00;;;3.90;;
75112;SDS011;63692;47.338;8.520;2023-12-29T13:17:18;4.85;;;2.88;;
75112;SDS011;63692;47.338;8.520;2023-12-29T13:19:48;5.72;;;3.00;;
75112;SDS011;63692;47.338;8.520;2023-12-29T13:22:22;5.53;;;3.20;;
75112;SDS011;63692;47.338;8.520;2023-12-29T13:24:48;6.20;;;2.72;;
75112;SDS011;63692;47.338;8.520;2023-12-29T13:27:14;5.13;;;2.50;;
75112;SDS011;63692;47.338;8.520;2023-12-29T13:29:40;5.50;;;2.70;;
75112;SDS011;63692;47.338;8.520;2023-12-29T13:32:10;6.10;;;2.85;;
75112;SDS011;63692;47.338;8.520;2023-12-29T13:34:41;5.20;;;2.80;;
75112;SDS011;63692;47.338;8.520;2023-12-29T13:37:17;5.78;;;3.30;;
75112;SDS011;63692;47.338;8.520;2023-12-29T13:43:08;5.97;;;3.50;;
75112;SDS011;63692;47.338;8.520;2023-12-29T13:45:36;6.15;;;3.05;;
75112;SDS011;63692;47.338;8.520;2023-12-29T13:48:05;6.15;;;3.13;;
75112;SDS011;63692;47.338;8.520;2023-12-29T13:50:32;7.03;;;2.88;;
75112;SDS011;63692;47.338;8.520;2023-12-29T13:52:59;4.95;;;3.00;;
75112;SDS011;63692;47.338;8.520;2023-12-29T13:55:25;7.30;;;3.13;;
75112;SDS011;63692;47.338;8.520;2023-12-29T13:57:51;4.90;;;2.78;;
75112;SDS011;63692;47.338;8.520;2023-12-29T14:00:18;5.90;;;2.92;;
75112;SDS011;63692;47.338;8.520;2023-12-29T14:05:31;5.70;;;3.10;;
75112;SDS011;63692;47.338;8.520;2023-12-29T14:10:29;4.55;;;2.83;;
75112;SDS011;63692;47.338;8.520;2023-12-29T14:35:22;3.90;;;2.60;;
75112;SDS011;63692;47.338;8.520;2023-12-29T14:37:47;4.53;;;2.78;;
75112;SDS011;63692;47.338;8.520;2023-12-29T14:40:13;4.75;;;2.83;;
75112;SDS011;63692;47.338;8.520;2023-12-29T14:42:39;5.30;;;3.03;;
75112;SDS011;63692;47.338;8.520;2023-12-29T14:47:33;4.25;;;2.38;;
75112;SDS011;63692;47.338;8.520;2023-12-29T14:49:59;5.72;;;3.00;;
75112;SDS011;63692;47.338;8.520;2023-12-29T14:52:25;5.70;;;3.25;;
75112;SDS011;63692;47.338;8.520;2023-12-29T14:54:51;5.43;;;2.78;;
75112;SDS011;63692;47.338;8.520;2023-12-29T14:59:47;5.80;;;2.90;;
75112;SDS011;63692;47.338;8.520;2023-12-29T15:07:09;4.45;;;2.60;;
